This is the latest recevied weather packets stored in our database for station/object VU3KEB-1. If no packets are shown the sender has not sent any weather packets the latest 10 day(s).
| Time | Temp. | Humidity | Pressure | Rain* | Wind** | Luminosity | Snow |
|---|---|---|---|---|---|---|---|
| 1788605526 | 30.56° C | 50% | 1032.2 hPa | - | - | - | - |
| 1788604309 | 30.56° C | 50% | 1032.2 hPa | - | - | - | - |
| 1788603092 | 30.56° C | 50% | 1032.5 hPa | - | - | - | - |
| 1788601874 | 30.56° C | 50% | 1032.5 hPa | - | - | - | - |
| 1788600657 | 30.56° C | 50% | 1032.5 hPa | - | - | - | - |
| 1788599439 | 30.56° C | 49% | 1032.9 hPa | - | - | - | - |
| 1788598219 | 30.56° C | 49% | 1032.9 hPa | - | - | - | - |
| 1788595800 | 30.56° C | 48% | 1033.7 hPa | - | - | - | - |
| 1788594583 | 30.56° C | 48% | 1033.7 hPa | - | - | - | - |
| 1788593365 | 30.56° C | 48% | 1033.7 hPa | - | - | - | - |
| 1788592150 | 30° C | 49% | 1034.8 hPa | - | - | - | - |
| 1788590933 | 30° C | 50% | 1035 hPa | - | - | - | - |
| 1788589717 | 29.44° C | 50% | 1035 hPa | - | - | - | - |
| 1788524985 | 28.33° C | 70% | 1032 hPa | - | - | - | - |
| 1788523767 | 27.78° C | 65% | 1031.9 hPa | - | - | - | - |
| 1788518930 | 28.33° C | 67% | 1031.5 hPa | - | - | - | - |
| 1788517712 | 28.33° C | 67% | 1031.5 hPa | - | - | - | - |
| 1788515279 | 29.44° C | 62% | 1031.6 hPa | - | - | - | - |
| 1788509252 | 30.56° C | 57% | 1032.8 hPa | - | - | - | - |
| 1788508035 | 30.56° C | 57% | 1032.8 hPa | - | - | - | - |
| 1788506814 | 30° C | 57% | 1033.1 hPa | - | - | - | - |
| 1788505594 | 29.44° C | 57% | 1034.1 hPa | - | - | - | - |
| 1788501977 | 28.89° C | 59% | 1034.8 hPa | - | - | - | - |
| 1788500761 | 28.33° C | 59% | 1034.8 hPa | - | - | - | - |
| 1788499546 | 27.78° C | 59% | 1034.8 hPa | - | - | - | - |
* Rain since midnight (hover to see other rain measurements)
** Current wind speed in m/s (hover to see current wind gust speed)